createdAt,value
2023-02-23T00:00:20.623Z,17.58
2023-02-23T00:05:26.838Z,20.39
2023-02-23T00:10:32.909Z,21.93
2023-02-23T00:15:39.171Z,20.32
2023-02-23T00:20:45.383Z,21.73
2023-02-23T00:25:51.671Z,21.15
2023-02-23T00:30:59.857Z,22.41
2023-02-23T00:36:03.696Z,20.66
2023-02-23T00:41:09.809Z,25.53
2023-02-23T00:46:16.223Z,23.65
2023-02-23T00:51:22.465Z,23.49
2023-02-23T00:56:28.706Z,21.73
2023-02-23T01:01:35.114Z,23.88
2023-02-23T01:06:41.294Z,26.03
2023-02-23T01:11:47.438Z,24.17
2023-02-23T01:16:53.967Z,25.18
2023-02-23T01:22:00.072Z,24.54
2023-02-23T01:27:06.469Z,24.24
2023-02-23T01:32:12.762Z,24.02
2023-02-23T01:37:19.653Z,25.69
2023-02-23T01:42:25.916Z,23.88
2023-02-23T01:47:32.083Z,25.74
2023-02-23T01:52:38.499Z,24.92
2023-02-23T01:57:44.733Z,27.20
2023-02-23T02:02:51.157Z,26.85
2023-02-23T02:07:57.450Z,28.08
2023-02-23T02:13:03.683Z,29.88
2023-02-23T02:18:10.680Z,31.10
2023-02-23T02:23:16.767Z,31.78
2023-02-23T02:28:22.967Z,27.29
2023-02-23T02:33:29.069Z,30.67
2023-02-23T02:38:35.354Z,28.83
2023-02-23T02:43:41.442Z,31.09
2023-02-23T02:48:47.984Z,28.92
2023-02-23T02:53:54.052Z,28.49
2023-02-23T02:59:00.193Z,33.37
2023-02-23T03:04:06.269Z,31.26
2023-02-23T03:09:12.473Z,30.03
2023-02-23T03:14:18.542Z,32.51
2023-02-23T03:19:24.842Z,33.43
2023-02-23T03:24:31.053Z,32.19
2023-02-23T03:29:37.222Z,32.44
2023-02-23T03:34:43.544Z,30.94
2023-02-23T03:39:49.853Z,31.07
2023-02-23T03:44:55.927Z,32.26
2023-02-23T03:50:02.423Z,33.54
2023-02-23T03:55:08.525Z,32.26
2023-02-23T04:00:14.663Z,33.27
2023-02-23T04:05:20.972Z,35.02
2023-02-23T04:10:27.356Z,35.18
2023-02-23T04:15:33.453Z,33.23
2023-02-23T04:20:39.772Z,37.29
2023-02-23T04:25:45.731Z,38.67
2023-02-23T04:30:52.211Z,40.42
2023-02-23T04:35:58.591Z,37.34
2023-02-23T04:41:04.966Z,39.14
2023-02-23T04:46:11.143Z,38.63
2023-02-23T04:51:17.609Z,37.28
2023-02-23T04:56:23.531Z,37.23
2023-02-23T05:01:29.861Z,38.96
2023-02-23T05:06:36.210Z,37.04
2023-02-23T05:11:42.672Z,35.43
2023-02-23T05:16:48.803Z,38.22
2023-02-23T05:21:55.229Z,36.68
2023-02-23T05:27:08.310Z,37.37
2023-02-23T05:32:04.831Z,36.61
2023-02-23T05:37:10.783Z,37.54
2023-02-23T05:42:16.969Z,34.53
2023-02-23T05:47:23.125Z,37.46
2023-02-23T05:52:29.319Z,36.83
2023-02-23T05:57:45.319Z,38.88
2023-02-23T06:02:41.604Z,39.25
2023-02-23T06:07:48.675Z,40.45
2023-02-23T06:12:57.160Z,40.95
2023-02-23T06:18:03.278Z,44.23
2023-02-23T06:23:09.710Z,44.12
2023-02-23T06:28:17.897Z,45.55
2023-02-23T06:33:25.384Z,45.53
2023-02-23T06:38:31.622Z,48.13
2023-02-23T06:43:37.878Z,55.84
2023-02-23T06:48:43.952Z,55.34
2023-02-23T06:53:50.125Z,54.81
2023-02-23T06:58:56.185Z,57.61
2023-02-23T07:04:02.491Z,56.09
2023-02-23T07:09:08.463Z,57.46
2023-02-23T07:14:21.495Z,59.95
2023-02-23T07:19:20.151Z,66.88
2023-02-23T07:24:26.415Z,65.71
2023-02-23T07:29:32.630Z,74.36
2023-02-23T07:34:39.942Z,70.74
2023-02-23T07:39:46.031Z,72.88
2023-02-23T07:44:52.215Z,76.12
2023-02-23T07:49:58.330Z,77.10
2023-02-23T07:55:04.634Z,66.19
2023-02-23T08:00:10.773Z,70.38
2023-02-23T08:05:17.077Z,74.21
2023-02-23T08:10:23.163Z,67.79
2023-02-23T08:15:29.375Z,60.73
2023-02-23T08:20:35.466Z,60.38
2023-02-23T08:25:41.667Z,60.59
2023-02-23T08:30:47.930Z,62.41
2023-02-23T08:35:54.102Z,58.29
2023-02-23T08:41:00.409Z,59.60
2023-02-23T08:46:06.683Z,59.18
2023-02-23T08:51:12.729Z,53.92
2023-02-23T08:56:18.966Z,56.85
2023-02-23T09:01:25.113Z,59.20
2023-02-23T09:06:31.205Z,57.94
2023-02-23T09:11:37.329Z,57.99
2023-02-23T09:16:43.607Z,58.93
2023-02-23T09:21:49.714Z,59.26
2023-02-23T09:26:55.973Z,58.82
2023-02-23T09:32:02.120Z,57.09
2023-02-23T09:37:08.218Z,66.54
2023-02-23T09:42:14.257Z,59.58
2023-02-23T09:47:20.480Z,62.55
2023-02-23T09:52:26.540Z,61.99
2023-02-23T09:57:32.745Z,59.39
2023-02-23T10:02:38.797Z,63.03
2023-02-23T10:07:45.102Z,72.03
2023-02-23T10:12:51.163Z,72.37
2023-02-23T10:17:57.282Z,83.09
2023-02-23T10:23:03.480Z,81.57
2023-02-23T10:28:09.627Z,82.57
2023-02-23T10:33:15.727Z,88.31
2023-02-23T10:38:21.920Z,78.36
2023-02-23T10:43:28.079Z,83.13
2023-02-23T10:48:34.242Z,81.92
2023-02-23T10:53:40.255Z,79.06
2023-02-23T10:58:46.591Z,75.90
2023-02-23T11:04:05.342Z,79.71
2023-02-23T11:08:58.240Z,77.24
2023-02-23T11:14:04.309Z,73.46
2023-02-23T11:19:10.591Z,76.22
2023-02-23T11:24:16.726Z,75.70
2023-02-23T11:29:22.936Z,76.03
2023-02-23T11:34:29.009Z,73.25
2023-02-23T11:39:35.163Z,75.32
2023-02-23T11:44:41.242Z,72.84
2023-02-23T11:49:47.485Z,75.82
2023-02-23T11:54:53.793Z,71.78
2023-02-23T11:59:59.982Z,70.53
2023-02-23T12:05:06.208Z,64.97
2023-02-23T12:10:12.354Z,72.46
2023-02-23T12:15:18.467Z,70.77
2023-02-23T12:20:24.739Z,70.84
2023-02-23T12:25:30.921Z,71.36
2023-02-23T12:30:37.276Z,64.15
2023-02-23T12:35:43.348Z,59.26
2023-02-23T12:40:51.675Z,60.22
2023-02-23T12:45:55.282Z,49.05
2023-02-23T12:51:01.430Z,45.64
2023-02-23T12:56:07.495Z,42.79
2023-02-23T13:01:13.716Z,44.10
2023-02-23T13:06:19.733Z,39.41
2023-02-23T13:11:26.010Z,41.78
2023-02-23T13:16:32.132Z,39.24
2023-02-23T13:21:38.345Z,37.54
2023-02-23T13:26:44.416Z,36.58
2023-02-23T13:31:51.030Z,38.70
2023-02-23T13:36:56.977Z,36.15
2023-02-23T13:42:03.143Z,30.92
2023-02-23T13:47:09.289Z,32.26
2023-02-23T13:52:15.405Z,31.40
2023-02-23T13:57:21.467Z,29.86
2023-02-23T14:02:27.695Z,29.96
2023-02-23T14:07:34.719Z,29.18
2023-02-23T14:12:41.049Z,28.82
2023-02-23T14:17:47.159Z,26.39
2023-02-23T14:22:53.540Z,27.28
2023-02-23T14:27:59.846Z,26.15
2023-02-23T14:33:20.073Z,28.98
2023-02-23T14:38:11.720Z,29.93
2023-02-23T14:43:17.934Z,29.31
2023-02-23T14:48:23.992Z,32.91
2023-02-23T14:53:30.196Z,32.64
2023-02-23T14:58:36.372Z,30.43
2023-02-23T15:03:42.595Z,26.52
2023-02-23T15:08:48.718Z,25.02
2023-02-23T15:13:54.958Z,19.59
2023-02-23T15:19:01.015Z,18.21
2023-02-23T15:24:07.286Z,21.64
2023-02-23T15:29:13.360Z,22.25
2023-02-23T15:34:19.633Z,18.82
2023-02-23T15:39:25.815Z,17.23
2023-02-23T15:44:42.384Z,14.40
2023-02-23T15:49:37.711Z,18.27
2023-02-23T15:54:44.084Z,16.56
2023-02-23T15:59:50.294Z,16.28
2023-02-23T16:04:56.480Z,17.42
2023-02-23T16:10:02.633Z,17.73
2023-02-23T16:15:08.812Z,16.39
2023-02-23T16:20:14.887Z,16.58
2023-02-23T16:25:21.226Z,13.53
2023-02-23T16:30:27.363Z,27.97
2023-02-23T16:35:34.529Z,12.55
2023-02-23T16:40:40.593Z,14.32
2023-02-23T16:45:46.848Z,11.51
2023-02-23T16:50:52.984Z,12.84
2023-02-23T16:55:59.183Z,12.97
2023-02-23T17:01:05.286Z,10.17
2023-02-23T17:06:11.608Z,12.62
2023-02-23T17:11:18.008Z,10.97
2023-02-23T17:16:23.900Z,12.94
2023-02-23T17:21:29.260Z,10.57
2023-02-23T17:26:35.496Z,9.21
2023-02-23T17:31:41.883Z,12.54
2023-02-23T17:36:47.972Z,10.38
2023-02-23T17:41:54.107Z,11.13
2023-02-23T17:47:00.311Z,10.74
2023-02-23T17:52:06.403Z,9.22
2023-02-23T17:57:12.737Z,10.44
2023-02-23T18:02:18.828Z,8.64
2023-02-23T18:07:24.978Z,9.16
2023-02-23T18:12:31.048Z,12.27
2023-02-23T18:17:37.323Z,12.95
2023-02-23T18:22:43.416Z,11.46
2023-02-23T18:27:49.612Z,9.78
2023-02-23T18:32:56.159Z,9.65
2023-02-23T18:38:02.207Z,10.02
2023-02-23T18:43:08.288Z,11.46
2023-02-23T18:48:17.036Z,10.72
2023-02-23T18:53:23.114Z,13.20
2023-02-23T18:58:29.650Z,9.89
2023-02-23T19:03:35.769Z,9.20
2023-02-23T19:08:42.015Z,14.21
2023-02-23T19:13:48.185Z,15.88
2023-02-23T19:18:54.835Z,10.94
2023-02-23T19:24:01.046Z,7.70
2023-02-23T19:29:07.331Z,10.28
2023-02-23T19:34:13.515Z,10.25
2023-02-23T19:39:19.733Z,10.84
2023-02-23T19:44:25.821Z,12.42
2023-02-23T19:49:31.950Z,11.34
2023-02-23T19:54:38.125Z,12.02
2023-02-23T19:59:44.344Z,11.08
2023-02-23T20:04:50.454Z,9.28
2023-02-23T20:09:56.726Z,11.42
2023-02-23T20:15:02.795Z,9.76
2023-02-23T20:20:09.055Z,7.66
2023-02-23T20:25:15.215Z,10.90
2023-02-23T20:30:21.399Z,9.90
2023-02-23T20:35:27.615Z,8.68
2023-02-23T20:40:33.873Z,9.16
2023-02-23T20:45:40.087Z,7.52
2023-02-23T20:50:46.155Z,7.30
2023-02-23T20:55:52.243Z,7.53
2023-02-23T21:00:58.487Z,8.56
2023-02-23T21:06:04.627Z,9.00
2023-02-23T21:11:10.878Z,9.11
2023-02-23T21:16:17.109Z,8.24
2023-02-23T21:21:23.336Z,7.87
2023-02-23T21:26:29.417Z,9.74
2023-02-23T21:31:35.821Z,8.50
2023-02-23T21:36:41.717Z,7.88
2023-02-23T21:41:47.947Z,7.20
2023-02-23T21:46:53.987Z,7.84
2023-02-23T21:52:00.206Z,7.24
2023-02-23T21:57:06.264Z,5.67
2023-02-23T22:02:12.470Z,7.42
2023-02-23T22:07:18.524Z,10.12
2023-02-23T22:12:24.685Z,10.10
2023-02-23T22:17:30.875Z,9.43
2023-02-23T22:22:37.049Z,7.45
2023-02-23T22:27:43.242Z,7.02
2023-02-23T22:32:49.773Z,6.61
2023-02-23T22:37:55.602Z,7.60
2023-02-23T22:43:01.799Z,6.27
2023-02-23T22:48:07.855Z,6.64
2023-02-23T22:53:14.126Z,6.36
2023-02-23T22:58:20.195Z,4.64
2023-02-23T23:03:26.386Z,6.10
2023-02-23T23:08:32.432Z,3.92
2023-02-23T23:13:38.674Z,4.25
2023-02-23T23:18:44.737Z,5.94
2023-02-23T23:23:51.116Z,4.32
2023-02-23T23:28:57.199Z,5.70
2023-02-23T23:34:03.364Z,3.77
2023-02-23T23:39:09.495Z,4.18
2023-02-23T23:44:15.762Z,3.57
2023-02-23T23:49:21.843Z,3.75
2023-02-23T23:54:28.038Z,4.37
2023-02-23T23:59:34.109Z,2.99
